Time;durP1;ratioP1;P1;durP2;ratioP2;P2;SDS_P1;SDS_P2;PMS_P1;PMS_P2;Temp;Humidity;BMP_temperature;BMP_pressure;BME280_temperature;BME280_humidity;BME280_pressure;Samples;Min_cycle;Max_cycle;Signal;HPM_P1;HPM_P2
2023/04/12 00:01:26;;;;;;;11.50;8.27;;;;;;;10.64;70.33;93955.22;5009835;28;20419;-76
2023/04/12 00:03:53;;;;;;;11.68;7.65;;;;;;;10.65;70.37;93951.56;4999669;28;20416;-76
2023/04/12 00:06:26;;;;;;;13.07;8.18;;;;;;;10.49;70.84;93932.03;5004553;28;20509;-76
2023/04/12 00:08:52;;;;;;;12.43;8.38;;;;;;;10.56;70.51;93935.34;5002439;28;20497;-76
2023/04/12 00:11:17;;;;;;;14.30;9.02;;;;;;;10.65;70.64;93943.66;5005289;28;20431;-76
2023/04/12 00:13:42;;;;;;;12.20;8.65;;;;;;;10.57;70.61;93930.88;4998863;28;20513;-76
2023/04/12 00:16:08;;;;;;;12.50;8.57;;;;;;;10.47;70.86;93925.41;5002267;28;20426;-76
2023/04/12 00:18:34;;;;;;;12.40;7.77;;;;;;;10.59;70.78;93939.34;5009709;28;20990;-76
2023/04/12 00:21:01;;;;;;;10.30;7.30;;;;;;;10.63;70.65;93939.69;5003120;28;20176;-76
2023/04/12 00:23:26;;;;;;;10.00;7.60;;;;;;;10.63;70.14;93932.59;4996688;28;20832;-76
2023/04/12 00:25:51;;;;;;;10.23;8.00;;;;;;;10.62;70.53;93932.81;5006408;28;20442;-76
2023/04/12 00:28:17;;;;;;;11.03;8.37;;;;;;;10.39;71.19;93909.97;5010104;28;20414;-76
2023/04/12 00:30:44;;;;;;;11.98;8.05;;;;;;;10.32;71.08;93928.53;4995140;28;20431;-76
2023/04/12 00:33:10;;;;;;;11.15;8.38;;;;;;;10.26;71.74;93932.09;4993393;28;20864;-76
2023/04/12 00:35:35;;;;;;;16.05;8.25;;;;;;;10.25;71.66;93900.75;5008564;28;20412;-76
2023/04/12 00:38:09;;;;;;;12.57;8.47;;;;;;;10.26;71.61;93910.25;5001518;28;20491;-76
2023/04/12 00:40:34;;;;;;;13.77;8.18;;;;;;;10.26;71.62;93907.63;4997860;28;20468;-76
2023/04/12 00:43:00;;;;;;;13.15;8.13;;;;;;;10.41;71.65;93923.72;4997577;28;20416;-76
2023/04/12 00:45:26;;;;;;;11.60;8.17;;;;;;;10.33;71.42;93903.84;5001318;28;20443;-76
2023/04/12 00:47:52;;;;;;;12.18;7.93;;;;;;;10.35;70.95;93914.13;5007942;28;20464;-76
2023/04/12 00:50:17;;;;;;;11.95;8.05;;;;;;;10.42;70.76;93912.97;5012948;28;20943;-76
2023/04/12 00:52:43;;;;;;;14.63;7.77;;;;;;;10.34;70.91;93888.84;5006333;28;20215;-76
2023/04/12 00:55:09;;;;;;;12.70;8.00;;;;;;;10.33;71.15;93905.66;4997820;28;20412;-76
2023/04/12 00:57:37;;;;;;;11.82;8.15;;;;;;;10.31;71.53;93908.50;4993187;28;20408;-76
2023/04/12 01:00:12;;;;;;;12.63;8.75;;;;;;;10.26;71.60;93895.28;5001126;28;21023;-76
2023/04/12 01:02:41;;;;;;;9.87;6.63;;;;;;;10.30;71.25;93900.84;5005151;28;20172;-76
2023/04/12 01:05:08;;;;;;;11.63;8.27;;;;;;;10.31;71.42;93915.59;5004604;28;20438;-76
2023/04/12 01:07:50;;;;;;;12.53;8.17;;;;;;;10.18;71.58;93896.44;5005714;28;20200;-76
2023/04/12 01:10:26;;;;;;;12.52;8.55;;;;;;;10.25;71.95;93912.09;5003884;28;20497;-76
2023/04/12 01:13:11;;;;;;;11.55;8.52;;;;;;;10.25;72.27;93912.09;4992921;28;20489;-76
2023/04/12 01:15:44;;;;;;;10.77;7.53;;;;;;;10.33;71.53;93910.91;5002513;28;20182;-76
2023/04/12 01:18:20;;;;;;;15.20;8.70;;;;;;;10.31;71.31;93915.59;4997420;28;20473;-76
2023/04/12 01:21:00;;;;;;;13.52;8.50;;;;;;;10.09;71.83;93895.16;4994360;28;20415;-76
2023/04/12 01:23:38;;;;;;;11.23;7.40;;;;;;;10.25;71.77;93909.44;5017616;28;20227;-76
2023/04/12 01:26:10;;;;;;;13.07;7.77;;;;;;;10.26;71.75;93900.53;5002173;28;20204;-76
2023/04/12 01:28:40;;;;;;;12.57;8.88;;;;;;;10.21;72.05;93906.47;4992278;28;20436;-76
2023/04/12 01:31:07;;;;;;;11.10;7.60;;;;;;;10.26;71.72;93902.38;5002489;28;20546;-76
2023/04/12 01:33:35;;;;;;;11.25;7.90;;;;;;;10.18;71.84;93911.41;5000013;28;20447;-76
2023/04/12 01:36:10;;;;;;;12.90;8.63;;;;;;;10.16;72.39;93908.19;5006219;28;20851;-76
2023/04/12 01:38:35;;;;;;;11.17;8.30;;;;;;;10.06;72.16;93913.22;5000126;28;20427;-76
2023/04/12 01:41:01;;;;;;;11.93;7.70;;;;;;;10.05;72.33;93909.78;5022752;28;20180;-76
2023/04/12 01:43:27;;;;;;;12.20;9.10;;;;;;;10.05;72.56;93907.16;5000665;28;20478;-76
2023/04/12 01:45:52;;;;;;;12.50;8.20;;;;;;;10.07;72.06;93899.03;4995074;28;20674;-76
2023/04/12 01:48:18;;;;;;;10.63;7.50;;;;;;;10.06;72.04;93902.69;5003617;28;20239;-76
2023/04/12 01:51:00;;;;;;;13.27;9.13;;;;;;;9.87;72.83;93888.09;5007278;28;20412;-76
2023/04/12 01:53:34;;;;;;;11.67;8.23;;;;;;;10.03;72.57;93909.22;5001697;28;20213;-76
2023/04/12 01:56:05;;;;;;;13.80;8.80;;;;;;;10.03;72.56;93911.84;4997793;28;20712;-76
2023/04/12 01:58:32;;;;;;;13.50;7.83;;;;;;;10.01;72.59;93906.03;5004584;28;20255;-76
2023/04/12 02:00:59;;;;;;;13.20;8.40;;;;;;;10.01;72.50;93913.91;4993540;28;20231;-76
2023/04/12 02:03:25;;;;;;;33.47;7.60;;;;;;;9.98;72.49;93905.69;5008465;28;20261;-76
2023/04/12 02:05:52;;;;;;;11.23;6.30;;;;;;;9.84;72.52;93890.16;5002528;28;20565;-76
2023/04/12 02:08:17;;;;;;;12.40;8.07;;;;;;;9.95;72.47;93914.81;4993432;28;20557;-77
2023/04/12 02:10:43;;;;;;;13.90;8.17;;;;;;;9.84;72.82;93894.63;5001985;28;20187;-76
2023/04/12 02:13:08;;;;;;;15.73;7.87;;;;;;;9.81;72.84;93901.13;5004619;28;20176;-76
2023/04/12 02:15:36;;;;;;;12.97;7.80;;;;;;;9.85;72.67;93917.25;5028227;28;20184;-76
2023/04/12 02:18:02;;;;;;;13.23;7.40;;;;;;;9.75;72.79;93907.31;5004496;28;20191;-76
2023/04/12 02:20:28;;;;;;;12.67;8.43;;;;;;;9.68;72.85;93917.13;4998914;28;20170;-76
2023/04/12 02:22:53;;;;;;;12.27;7.43;;;;;;;9.62;73.24;93909.34;5009849;28;20181;-76
2023/04/12 02:25:19;;;;;;;19.20;8.97;;;;;;;9.60;73.07;93912.19;5027716;28;20188;-76
2023/04/12 02:27:45;;;;;;;14.13;8.70;;;;;;;9.56;73.36;93912.91;5012284;28;20173;-76
2023/04/12 02:30:11;;;;;;;15.17;8.73;;;;;;;9.52;73.80;93907.28;5012722;28;20260;-76
2023/04/12 02:32:43;;;;;;;15.40;8.43;;;;;;;9.55;73.70;93916.53;5003949;28;20177;-77
2023/04/12 02:35:16;;;;;;;14.17;8.77;;;;;;;9.36;73.76;93877.25;5013241;28;20172;-78
2023/04/12 02:37:43;;;;;;;19.40;11.95;;;;;;;9.51;73.89;93904.91;5012020;28;20426;-77
2023/04/12 02:40:11;;;;;;;15.37;9.93;;;;;;;9.46;74.18;93901.13;5003490;28;20419;-78
2023/04/12 02:42:36;;;;;;;14.60;9.00;;;;;;;9.40;74.50;93881.03;5006263;28;20260;-77
2023/04/12 02:45:03;;;;;;;15.23;9.80;;;;;;;9.52;74.86;93891.53;4996397;28;20519;-77
2023/04/12 02:47:29;;;;;;;16.73;9.07;;;;;;;9.37;74.61;93878.03;5001136;28;20181;-77
2023/04/12 02:49:54;;;;;;;17.13;10.27;;;;;;;9.51;75.09;93883.88;5006691;28;20807;-77
2023/04/12 02:52:20;;;;;;;16.75;11.30;;;;;;;9.45;75.36;93890.84;5002371;28;20419;-77
2023/04/12 02:54:47;;;;;;;16.27;11.57;;;;;;;9.33;75.77;93882.16;5003142;28;20415;-77
2023/04/12 02:57:12;;;;;;;13.27;8.53;;;;;;;9.47;75.37;93888.78;5003128;28;20649;-77
2023/04/12 02:59:38;;;;;;;15.97;9.80;;;;;;;9.58;74.96;93889.81;5004104;28;20188;-77
2023/04/12 03:02:03;;;;;;;20.60;10.27;;;;;;;9.61;75.48;93884.91;4999022;28;20926;-77
2023/04/12 03:04:29;;;;;;;17.07;10.90;;;;;;;9.58;75.85;93880.13;5007911;28;20422;-77
2023/04/12 03:06:55;;;;;;;16.87;10.10;;;;;;;9.68;75.39;93885.59;5003879;28;20180;-77
2023/04/12 03:09:21;;;;;;;18.53;10.03;;;;;;;9.78;75.05;93875.28;5003782;28;20263;-77
2023/04/12 03:11:47;;;;;;;17.43;9.63;;;;;;;9.81;75.32;93874.84;5012194;28;20271;-77
2023/04/12 03:14:12;;;;;;;18.40;10.40;;;;;;;9.89;75.70;93878.16;5007266;28;20227;-77
2023/04/12 03:16:37;;;;;;;13.17;8.83;;;;;;;9.73;75.71;93848.91;5000672;28;20177;-77
2023/04/12 03:19:04;;;;;;;21.17;12.67;;;;;;;9.94;75.79;93884.34;5010686;28;20426;-76
2023/04/12 03:21:32;;;;;;;19.73;11.70;;;;;;;9.96;76.41;93876.19;4996976;28;20477;-77
2023/04/12 03:23:57;;;;;;;19.98;12.30;;;;;;;10.04;76.36;93892.41;5000950;28;20803;-76
2023/04/12 03:26:25;;;;;;;18.63;12.73;;;;;;;10.10;76.43;93891.50;5004769;28;20447;-76
2023/04/12 03:28:55;;;;;;;20.67;12.52;;;;;;;10.16;76.42;93887.94;4990251;28;20434;-76
2023/04/12 03:31:20;;;;;;;18.95;12.52;;;;;;;10.26;76.18;93897.91;4990355;28;20913;-76
2023/04/12 03:33:46;;;;;;;20.90;12.40;;;;;;;10.29;75.71;93894.03;5005787;28;20516;-76
2023/04/12 03:36:11;;;;;;;21.07;12.97;;;;;;;10.28;75.44;93879.25;4999169;28;20447;-76
2023/04/12 03:38:37;;;;;;;18.43;11.30;;;;;;;10.46;75.25;93897.53;4999941;28;20558;-76
2023/04/12 03:41:02;;;;;;;17.40;11.83;;;;;;;10.46;74.83;93897.53;5007568;28;20434;-76
2023/04/12 03:43:34;;;;;;;16.23;11.00;;;;;;;10.49;74.69;93903.09;4997962;28;20428;-76
2023/04/12 03:46:00;;;;;;;19.65;11.52;;;;;;;10.56;74.55;93908.22;5023057;28;20469;-76
2023/04/12 03:48:25;;;;;;;17.58;11.57;;;;;;;10.58;73.72;93914.84;4999912;28;20439;-76
2023/04/12 03:50:53;;;;;;;17.10;11.50;;;;;;;10.58;73.62;93906.16;5004971;28;20476;-76
2023/04/12 03:53:19;;;;;;;19.58;12.07;;;;;;;10.65;73.89;93916.53;4999841;28;20909;-76
2023/04/12 03:55:45;;;;;;;19.58;12.25;;;;;;;10.61;73.54;93924.13;4994263;28;20430;-76
2023/04/12 03:58:12;;;;;;;18.57;12.17;;;;;;;10.56;74.03;93918.75;5002359;28;20908;-76
2023/04/12 04:00:38;;;;;;;18.58;12.68;;;;;;;10.43;73.90;93893.50;5010318;28;20419;-76
2023/04/12 04:03:03;;;;;;;16.20;11.40;;;;;;;10.44;73.84;93886.41;4995477;28;20442;-76
2023/04/12 04:05:30;;;;;;;19.23;12.70;;;;;;;10.62;73.93;93901.25;4990016;28;20999;-76
2023/04/12 04:07:59;;;;;;;19.60;12.30;;;;;;;10.67;73.53;93903.94;5004266;28;20422;-76
2023/04/12 04:10:28;;;;;;;17.50;11.60;;;;;;;10.56;73.49;93924.00;5013656;28;20473;-76
2023/04/12 04:12:53;;;;;;;19.83;13.60;;;;;;;10.42;73.88;93902.44;5013292;28;20433;-76
2023/04/12 04:15:19;;;;;;;19.90;12.65;;;;;;;10.65;73.43;93927.88;5013508;28;20407;-76
2023/04/12 04:17:47;;;;;;;19.52;12.43;;;;;;;10.51;73.42;93911.56;5002958;28;20455;-76
2023/04/12 04:20:12;;;;;;;19.80;13.18;;;;;;;10.72;73.39;93952.25;5008266;28;20426;-76
2023/04/12 04:22:38;;;;;;;18.80;11.95;;;;;;;10.78;73.00;93953.13;5013155;28;20515;-75
2023/04/12 04:25:04;;;;;;;19.15;12.25;;;;;;;10.59;72.93;93932.25;5013470;28;20453;-76
2023/04/12 04:27:33;;;;;;;19.70;12.68;;;;;;;10.56;73.23;93927.44;5013110;28;20410;-76
2023/04/12 04:30:01;;;;;;;16.33;11.88;;;;;;;10.64;72.95;93949.19;4993896;28;20944;-77
2023/04/12 04:32:27;;;;;;;19.60;12.57;;;;;;;10.57;73.35;93954.56;4999108;28;20414;-76
2023/04/12 04:34:56;;;;;;;18.92;11.90;;;;;;;10.66;73.44;93953.16;5004676;28;20477;-76
2023/04/12 04:37:23;;;;;;;18.55;11.80;;;;;;;10.52;73.16;93944.75;5004724;28;20422;-76
2023/04/12 04:39:49;;;;;;;18.23;12.53;;;;;;;10.67;73.18;93956.59;5013041;28;20500;-76
2023/04/12 04:42:14;;;;;;;19.75;12.40;;;;;;;10.63;73.02;93955.47;5010164;28;20489;-76
2023/04/12 04:44:40;;;;;;;16.30;11.23;;;;;;;10.61;73.26;93963.59;4993734;28;20443;-76
2023/04/12 04:47:07;;;;;;;17.08;11.30;;;;;;;10.70;72.27;93964.84;4993089;28;20796;-76
2023/04/12 04:49:32;;;;;;;21.45;12.13;;;;;;;10.66;72.53;93955.00;5011904;28;20911;-76
2023/04/12 04:51:58;;;;;;;18.67;11.33;;;;;;;10.76;72.12;93971.78;5006275;28;20187;-76
2023/04/12 04:54:23;;;;;;;17.87;10.77;;;;;;;10.76;71.80;93974.41;4999877;28;20429;-76
2023/04/12 04:56:48;;;;;;;18.23;11.70;;;;;;;10.62;72.24;93967.81;5012704;28;20414;-77
2023/04/12 04:59:16;;;;;;;15.33;9.67;;;;;;;10.51;72.00;93963.38;5004483;28;20411;-76
2023/04/12 05:01:41;;;;;;;15.80;10.73;;;;;;;10.53;71.94;93967.38;5001626;28;20809;-76
2023/04/12 05:04:07;;;;;;;15.23;10.27;;;;;;;10.46;71.86;93979.88;5001647;28;20419;-75
2023/04/12 05:06:33;;;;;;;16.83;9.50;;;;;;;10.44;72.01;93973.25;5009377;28;20512;-76
2023/04/12 05:09:00;;;;;;;16.00;9.20;;;;;;;10.55;71.43;93985.59;5008572;28;20470;-76
2023/04/12 05:11:26;;;;;;;17.42;10.43;;;;;;;10.63;71.08;93987.84;5012501;28;20418;-78
2023/04/12 05:13:51;;;;;;;13.85;8.63;;;;;;;10.57;71.06;93984.31;5000064;28;20424;-76
2023/04/12 05:16:17;;;;;;;13.98;10.00;;;;;;;10.53;70.79;93977.13;5001054;28;20861;-76
2023/04/12 05:18:43;;;;;;;14.27;9.07;;;;;;;10.45;71.08;93988.00;5012544;28;20473;-75
2023/04/12 05:21:08;;;;;;;14.40;9.30;;;;;;;10.45;71.69;93975.66;5011146;28;20426;-76
2023/04/12 05:23:38;;;;;;;15.47;8.70;;;;;;;10.59;69.98;93976.19;4995957;28;20901;-75
2023/04/12 05:26:04;;;;;;;12.10;8.07;;;;;;;10.66;69.40;93968.16;4998738;28;20979;-76
2023/04/12 05:28:30;;;;;;;11.43;6.97;;;;;;;10.88;68.09;93988.34;5001752;28;20495;-76
2023/04/12 05:30:55;;;;;;;12.40;6.97;;;;;;;10.83;67.99;93982.97;4993383;28;20434;-76
2023/04/12 05:33:21;;;;;;;13.83;7.70;;;;;;;10.90;67.88;93996.00;5007816;28;20440;-76
2023/04/12 05:35:46;;;;;;;11.13;7.87;;;;;;;10.90;67.64;94004.69;4994164;28;20890;-76
2023/04/12 05:38:11;;;;;;;11.00;7.57;;;;;;;10.86;67.64;94000.16;5016757;28;20430;-76
2023/04/12 05:40:37;;;;;;;10.50;7.13;;;;;;;10.77;67.34;93983.91;5003669;28;20425;-76
2023/04/12 05:43:03;;;;;;;9.70;6.72;;;;;;;10.85;67.33;93991.44;5012140;28;20488;-76
2023/04/12 05:45:28;;;;;;;14.70;8.27;;;;;;;10.96;66.39;94002.97;5011921;28;20462;-76
2023/04/12 05:47:54;;;;;;;14.87;8.53;;;;;;;10.80;66.17;93987.94;5012945;28;20429;-76
2023/04/12 05:50:20;;;;;;;14.73;9.57;;;;;;;10.77;65.94;93999.72;5007480;28;20793;-76
2023/04/12 05:52:47;;;;;;;19.67;10.30;;;;;;;10.66;66.26;93994.47;5000597;28;20821;-76
2023/04/12 05:55:13;;;;;;;13.33;7.37;;;;;;;10.55;65.96;93988.22;4993283;28;20412;-76
2023/04/12 05:57:39;;;;;;;11.07;6.23;;;;;;;10.68;65.85;94008.19;5000313;28;20176;-76
2023/04/12 06:00:17;;;;;;;15.77;7.00;;;;;;;10.53;65.80;93993.69;5012492;28;20410;-76
2023/04/12 06:02:44;;;;;;;10.20;6.10;;;;;;;10.70;65.30;94020.09;5004711;28;20446;-76
2023/04/12 06:05:10;;;;;;;7.55;5.60;;;;;;;10.71;65.26;94005.91;5009903;28;20438;-75
2023/04/12 06:07:38;;;;;;;8.15;6.10;;;;;;;10.63;65.19;94016.81;5026141;28;20496;-75
2023/04/12 06:10:04;;;;;;;21.53;6.00;;;;;;;10.66;64.77;94029.47;5012323;28;20262;-75
2023/04/12 06:12:30;;;;;;;12.38;5.45;;;;;;;10.53;65.31;94029.75;5000730;28;20428;-75
2023/04/12 06:14:55;;;;;;;10.10;5.17;;;;;;;10.36;66.28;94021.75;5007169;28;20181;-75
2023/04/12 06:17:21;;;;;;;14.38;7.90;;;;;;;10.19;67.37;94016.38;5010666;28;20410;-75
2023/04/12 06:19:46;;;;;;;9.60;6.50;;;;;;;10.28;67.17;94037.06;5002293;28;20450;-75
2023/04/12 06:22:12;;;;;;;12.33;7.37;;;;;;;10.34;66.95;94042.22;4996104;28;20428;-75
2023/04/12 06:24:37;;;;;;;10.93;6.47;;;;;;;10.25;67.38;94011.22;4991189;28;20511;-75
2023/04/12 06:27:03;;;;;;;7.37;4.93;;;;;;;10.38;67.35;94034.69;4992511;28;20771;-75
2023/04/12 06:29:28;;;;;;;6.70;4.93;;;;;;;10.35;66.85;94008.81;4991134;28;20921;-75
2023/04/12 06:31:53;;;;;;;8.35;5.50;;;;;;;10.48;65.62;94027.78;4991260;28;20427;-75
2023/04/12 06:34:19;;;;;;;6.38;4.55;;;;;;;10.33;66.08;94013.50;4990862;28;20531;-75
2023/04/12 06:36:46;;;;;;;7.17;4.67;;;;;;;10.51;66.63;94023.91;4992686;28;20173;-75
2023/04/12 06:39:12;;;;;;;5.80;3.90;;;;;;;10.66;65.86;94018.94;4992375;28;20630;-74
2023/04/12 06:41:38;;;;;;;22.40;5.60;;;;;;;10.77;65.92;94023.41;4992526;28;20173;-75
2023/04/12 06:44:04;;;;;;;8.77;4.00;;;;;;;10.85;65.47;94027.50;4992322;28;20239;-76
2023/04/12 06:46:30;;;;;;;10.13;3.50;;;;;;;10.87;64.89;94020.97;4992287;28;20208;-77
2023/04/12 06:48:56;;;;;;;11.87;4.23;;;;;;;10.69;65.40;94029.03;4992207;28;20240;-75
2023/04/12 06:51:21;;;;;;;4.10;3.20;;;;;;;10.76;65.60;94011.28;5007112;28;20188;-75
2023/04/12 06:53:46;;;;;;;12.83;4.87;;;;;;;10.68;65.96;94013.47;5004743;28;20423;-75
2023/04/12 06:56:12;;;;;;;8.23;5.07;;;;;;;10.63;66.12;94002.84;4999369;28;20173;-75
2023/04/12 06:58:37;;;;;;;10.53;4.10;;;;;;;10.60;65.90;94004.09;4997815;28;20181;-75
2023/04/12 07:01:07;;;;;;;7.33;4.57;;;;;;;10.67;65.72;94004.75;5010534;28;20172;-75
2023/04/12 07:03:33;;;;;;;8.33;4.80;;;;;;;10.68;66.17;93990.56;5010961;28;20254;-75
2023/04/12 07:06:03;;;;;;;7.40;4.70;;;;;;;10.88;66.73;94001.53;5011582;28;20242;-75
2023/04/12 07:08:29;;;;;;;11.43;4.70;;;;;;;11.20;66.17;94004.50;5012252;28;20872;-75
2023/04/12 07:10:54;;;;;;;4.27;2.97;;;;;;;11.49;63.75;94007.13;5011733;28;20258;-75
2023/04/12 07:13:21;;;;;;;3.77;2.90;;;;;;;11.62;62.72;94012.09;5011709;28;20184;-75
2023/04/12 07:15:48;;;;;;;6.90;3.17;;;;;;;11.60;62.97;93995.69;5011230;28;20172;-75
2023/04/12 07:18:13;;;;;;;4.63;3.20;;;;;;;11.88;63.35;94016.78;5011662;28;20721;-76
2023/04/12 07:20:39;;;;;;;5.57;3.57;;;;;;;11.90;61.53;94019.19;5011885;28;20180;-76
2023/04/12 07:23:04;;;;;;;10.03;3.97;;;;;;;11.88;61.15;94021.25;5012132;28;20176;-77
2023/04/12 07:25:29;;;;;;;12.70;3.77;;;;;;;11.70;61.04;94015.13;5011837;28;20573;-75
2023/04/12 07:27:55;;;;;;;9.87;3.73;;;;;;;11.67;61.61;94015.63;5000476;28;20259;-75
2023/04/12 07:30:21;;;;;;;7.80;3.27;;;;;;;11.42;62.53;93982.72;5008995;28;20592;-76
2023/04/12 07:32:47;;;;;;;6.00;3.60;;;;;;;11.38;62.27;93985.06;5011458;28;20208;-76
2023/04/12 07:35:12;;;;;;;8.20;3.87;;;;;;;11.65;62.17;93980.78;5011334;28;20296;-75
2023/04/12 07:37:38;;;;;;;7.13;3.77;;;;;;;12.07;61.79;94009.44;5011218;28;20642;-76
2023/04/12 07:40:04;;;;;;;5.73;3.93;;;;;;;12.29;62.20;93981.25;5011252;28;20248;-76
2023/04/12 07:42:29;;;;;;;5.40;2.70;;;;;;;12.66;61.03;93959.56;5011528;28;20169;-76
2023/04/12 07:44:55;;;;;;;4.47;3.10;;;;;;;13.49;59.09;94000.69;5010473;28;20199;-75
2023/04/12 07:47:20;;;;;;;8.23;3.53;;;;;;;14.15;57.51;93998.63;5015086;28;20176;-76
2023/04/12 07:49:45;;;;;;;4.93;2.50;;;;;;;14.56;52.94;94005.00;5015506;28;20234;-74
2023/04/12 07:52:11;;;;;;;6.03;2.60;;;;;;;14.34;52.42;93999.81;5019035;28;20188;-75
2023/04/12 07:54:36;;;;;;;3.63;2.80;;;;;;;14.07;50.19;93980.56;4999589;28;20168;-75
2023/04/12 07:57:02;;;;;;;3.73;2.53;;;;;;;13.75;51.88;93973.41;5006328;28;20657;-75
2023/04/12 07:59:29;;;;;;;7.63;2.20;;;;;;;13.53;51.64;93975.34;5006171;28;20172;-75
2023/04/12 08:01:54;;;;;;;6.20;2.40;;;;;;;13.04;52.09;93962.13;5015017;28;20553;-75
2023/04/12 08:04:20;;;;;;;10.80;3.13;;;;;;;12.67;53.68;93964.59;4998558;28;20185;-76
2023/04/12 08:06:45;;;;;;;5.00;2.80;;;;;;;12.72;54.75;93963.84;5013968;28;20193;-75
2023/04/12 08:09:11;;;;;;;5.00;2.40;;;;;;;12.76;53.44;93964.97;5005687;28;20563;-76
2023/04/12 08:11:36;;;;;;;2.70;2.03;;;;;;;12.56;52.05;93970.00;5007123;28;20180;-76
2023/04/12 08:14:01;;;;;;;5.57;2.90;;;;;;;12.45;53.12;93969.84;5001447;28;20191;-77
2023/04/12 08:16:27;;;;;;;5.70;2.90;;;;;;;12.53;52.81;93970.50;5005230;28;20185;-77
2023/04/12 08:18:52;;;;;;;3.40;2.47;;;;;;;12.69;53.43;93965.16;5004990;28;20183;-77
2023/04/12 08:21:18;;;;;;;2.57;2.07;;;;;;;13.18;52.68;93975.78;5004847;28;20177;-77
2023/04/12 08:23:43;;;;;;;4.47;2.13;;;;;;;13.65;51.60;93969.91;4995619;28;20196;-77
2023/04/12 08:26:09;;;;;;;5.83;3.07;;;;;;;14.26;49.28;93963.22;5010812;28;20208;-77
2023/04/12 08:28:34;;;;;;;4.47;2.53;;;;;;;14.46;46.19;93960.72;5011074;28;20200;-76
2023/04/12 08:31:01;;;;;;;3.70;1.63;;;;;;;14.26;46.84;93932.25;5005810;28;20195;-75
2023/04/12 08:33:27;;;;;;;4.30;2.10;;;;;;;14.38;47.29;93939.97;5008519;28;20231;-75
2023/04/12 08:35:53;;;;;;;6.63;1.90;;;;;;;14.41;46.01;93965.19;5002744;28;20252;-75
2023/04/12 08:38:18;;;;;;;2.10;1.33;;;;;;;14.32;48.50;93965.66;5004551;28;20219;-78
2023/04/12 08:40:46;;;;;;;3.43;1.90;;;;;;;14.52;46.93;93941.16;5006642;28;20642;-78
2023/04/12 08:43:12;;;;;;;3.23;2.20;;;;;;;15.13;45.14;93922.84;5005673;28;20179;-76
2023/04/12 08:45:37;;;;;;;8.53;2.07;;;;;;;15.53;45.11;93948.63;5008874;28;20206;-76
2023/04/12 08:48:06;;;;;;;4.00;1.70;;;;;;;15.76;44.08;93950.78;5009778;28;20180;-76
2023/04/12 08:50:31;;;;;;;3.47;2.10;;;;;;;15.98;44.45;93945.22;5013787;28;20245;-75
2023/04/12 08:52:58;;;;;;;3.70;1.77;;;;;;;16.13;42.04;93957.69;5005634;28;20184;-76
2023/04/12 08:55:23;;;;;;;3.65;1.52;;;;;;;15.97;42.35;93964.88;5014497;28;20230;-77
2023/04/12 08:57:52;;;;;;;2.10;1.90;;;;;;;15.71;43.10;93907.56;5002072;28;20185;-77
2023/04/12 09:00:19;;;;;;;1.73;1.63;;;;;;;15.96;43.87;93950.00;5016069;28;20295;-74
2023/04/12 09:02:47;;;;;;;6.20;2.00;;;;;;;15.79;44.65;93950.28;5004124;28;20207;-78
2023/04/12 09:05:13;;;;;;;8.30;2.20;;;;;;;15.53;42.94;93934.56;5002949;28;20215;-78
2023/04/12 09:07:39;;;;;;;4.05;2.65;;;;;;;15.75;44.75;93943.91;4999618;28;20642;-75
2023/04/12 09:10:05;;;;;;;11.73;2.70;;;;;;;15.72;42.30;93938.34;5009329;28;20558;-75
2023/04/12 09:12:31;;;;;;;3.50;2.40;;;;;;;15.64;43.47;93937.00;5024235;28;20267;-75
2023/04/12 09:15:12;;;;;;;4.90;2.63;;;;;;;15.56;42.65;93950.00;4994294;28;20770;-75
2023/04/12 09:17:39;;;;;;;2.03;1.77;;;;;;;15.55;41.63;93938.59;5001578;28;20173;-75
2023/04/12 09:20:17;;;;;;;2.70;1.85;;;;;;;15.42;41.92;93923.16;5011230;28;20279;-77
2023/04/12 09:22:45;;;;;;;7.27;2.93;;;;;;;15.44;45.50;93929.00;5013519;28;20195;-78
2023/04/12 09:25:11;;;;;;;5.40;1.73;;;;;;;15.37;43.02;93925.81;5004069;28;20201;-75
2023/04/12 09:27:51;;;;;;;5.80;2.47;;;;;;;15.33;44.55;93903.50;5001894;28;20415;-76
2023/04/12 09:30:18;;;;;;;12.05;2.47;;;;;;;15.42;43.19;93926.59;5009976;28;20180;-75
2023/04/12 09:32:44;;;;;;;10.95;2.50;;;;;;;15.31;42.06;93903.75;5003655;28;20679;-75
2023/04/12 09:35:10;;;;;;;3.83;2.67;;;;;;;15.33;42.53;93914.91;5001931;28;20291;-75
2023/04/12 09:37:35;;;;;;;3.50;1.52;;;;;;;15.14;41.37;93910.34;5009187;28;20200;-75
2023/04/12 09:40:06;;;;;;;5.47;1.67;;;;;;;14.87;42.22;93900.78;5013037;28;20176;-75
2023/04/12 09:42:54;;;;;;;3.40;2.07;;;;;;;14.81;43.08;93901.00;5013018;28;20172;-75
2023/04/12 09:45:23;;;;;;;3.10;2.40;;;;;;;14.84;44.43;93887.25;5014332;28;20212;-75
2023/04/12 09:47:48;;;;;;;2.53;1.80;;;;;;;14.76;46.31;93840.06;5005167;28;20168;-75
2023/04/12 09:50:28;;;;;;;4.90;2.87;;;;;;;15.19;46.58;93889.97;5005900;28;20196;-74
2023/04/12 09:52:55;;;;;;;5.30;2.60;;;;;;;15.32;45.67;93878.03;5006992;28;20170;-74
2023/04/12 09:55:22;;;;;;;5.40;2.80;;;;;;;15.25;44.13;93857.09;5012562;28;20173;-75
2023/04/12 09:57:50;;;;;;;12.27;2.75;;;;;;;15.42;43.98;93901.94;5005667;28;20176;-74
2023/04/12 10:00:17;;;;;;;1.53;1.43;;;;;;;15.39;41.62;93874.06;5009362;28;20246;-75
2023/04/12 10:02:44;;;;;;;12.87;2.40;;;;;;;15.36;39.12;93874.63;5002988;28;20180;-76
2023/04/12 10:05:12;;;;;;;5.13;2.10;;;;;;;15.19;38.41;93882.03;4992415;28;20746;-75
2023/04/12 10:07:43;;;;;;;2.40;1.47;;;;;;;15.04;37.46;93882.81;5000727;28;20173;-74
2023/04/12 10:10:11;;;;;;;5.43;2.37;;;;;;;14.95;37.95;93872.97;4990313;28;20204;-74
2023/04/12 10:12:38;;;;;;;3.08;2.25;;;;;;;14.99;38.80;93882.78;4992071;28;20173;-74
2023/04/12 10:15:11;;;;;;;2.50;1.23;;;;;;;15.00;37.00;93880.91;4992653;28;20595;-75
2023/04/12 10:17:40;;;;;;;6.85;2.95;;;;;;;14.66;37.83;93868.13;5027153;28;20287;-74
2023/04/12 10:20:06;;;;;;;1.57;1.00;;;;;;;14.71;37.85;93876.06;5011955;28;20616;-75
2023/04/12 10:22:32;;;;;;;9.27;3.17;;;;;;;14.66;38.65;93881.34;5002388;28;20231;-74
2023/04/12 10:24:58;;;;;;;4.22;1.55;;;;;;;14.70;38.59;93863.88;5004887;28;20200;-74
2023/04/12 10:27:27;;;;;;;3.10;1.40;;;;;;;14.73;40.33;93858.06;5018010;28;20270;-74
2023/04/12 10:29:53;;;;;;;2.73;1.87;;;;;;;14.59;38.66;93854.31;5012522;28;20176;-74
2023/04/12 10:32:21;;;;;;;7.13;2.03;;;;;;;14.65;40.21;93855.13;5010532;28;20629;-74
2023/04/12 10:34:55;;;;;;;2.03;1.60;;;;;;;14.74;38.73;93856.22;4996823;28;20228;-74
2023/04/12 10:37:21;;;;;;;3.77;1.97;;;;;;;14.77;38.73;93852.25;5013760;28;20188;-74
2023/04/12 10:39:53;;;;;;;2.27;1.93;;;;;;;14.84;38.51;93858.91;5013697;28;20211;-74
2023/04/12 10:42:27;;;;;;;3.33;1.70;;;;;;;14.88;36.86;93862.59;5014772;28;20201;-74
2023/04/12 10:45:13;;;;;;;3.27;2.50;;;;;;;14.79;37.80;93855.44;5000041;28;20196;-74
2023/04/12 10:47:48;;;;;;;2.88;1.25;;;;;;;14.83;36.26;93872.41;4991051;28;20431;-75
2023/04/12 10:50:24;;;;;;;2.50;1.75;;;;;;;14.74;35.30;93850.91;5020653;28;20192;-74
2023/04/12 10:53:08;;;;;;;5.47;1.60;;;;;;;14.81;35.35;93855.97;5011233;28;20241;-73
2023/04/12 10:55:34;;;;;;;2.72;1.70;;;;;;;14.82;35.80;93837.16;5025774;28;20612;-74
2023/04/12 10:58:00;;;;;;;7.80;1.60;;;;;;;14.90;36.94;93867.63;5011264;28;20171;-74
2023/04/12 11:00:57;;;;;;;3.30;1.90;;;;;;;14.96;34.31;93856.78;5011186;28;20255;-74
2023/04/12 11:03:24;;;;;;;5.90;1.90;;;;;;;14.99;34.69;93850.97;5011163;28;20215;-74
2023/04/12 11:06:01;;;;;;;3.80;1.00;;;;;;;14.88;33.50;93844.06;5010989;28;20222;-74
2023/04/12 11:08:31;;;;;;;4.30;1.47;;;;;;;14.94;36.10;93826.31;5011020;28;20168;-74
2023/04/12 11:11:04;;;;;;;12.35;2.13;;;;;;;14.93;33.95;93837.97;5009975;28;20423;-74
2023/04/12 11:13:35;;;;;;;8.75;1.55;;;;;;;15.07;33.21;93852.31;5011054;28;20164;-74
2023/04/12 11:16:02;;;;;;;3.93;1.57;;;;;;;15.11;33.93;93853.38;5020227;28;20424;-74
2023/04/12 11:18:28;;;;;;;3.85;1.38;;;;;;;15.17;34.91;93848.88;5012003;28;20431;-74
2023/04/12 11:20:57;;;;;;;3.08;1.25;;;;;;;15.07;34.82;93829.25;5009653;28;20937;-74
2023/04/12 11:23:23;;;;;;;6.05;1.25;;;;;;;15.24;32.64;93847.53;5010803;28;20168;-74
2023/04/12 11:25:51;;;;;;;2.58;1.27;;;;;;;15.18;32.89;93840.66;5010796;28;20206;-74
2023/04/12 11:28:18;;;;;;;2.58;1.30;;;;;;;15.23;34.76;93843.31;5010881;28;20172;-75